createdAt,value
2024-02-28T00:00:18.193Z,6.00
2024-02-28T00:00:53.052Z,6.87
2024-02-28T00:01:26.246Z,6.50
2024-02-28T00:01:58.792Z,6.07
2024-02-28T00:02:31.410Z,5.93
2024-02-28T00:03:24.869Z,6.47
2024-02-28T00:04:18.679Z,6.43
2024-02-28T00:04:51.200Z,6.07
2024-02-28T00:05:23.736Z,6.53
2024-02-28T00:05:56.231Z,6.10
2024-02-28T00:06:28.761Z,6.07
2024-02-28T00:07:01.297Z,6.73
2024-02-28T00:07:33.788Z,6.30
2024-02-28T00:08:06.413Z,6.37
2024-02-28T00:08:39.003Z,5.80
2024-02-28T00:09:12.635Z,5.70
2024-02-28T00:09:45.197Z,6.63
2024-02-28T00:10:17.737Z,6.37
2024-02-28T00:10:50.315Z,6.37
2024-02-28T00:11:22.906Z,5.80
2024-02-28T00:11:55.514Z,5.67
2024-02-28T00:12:28.116Z,5.70
2024-02-28T00:13:01.288Z,5.97
2024-02-28T00:13:33.987Z,6.00
2024-02-28T00:14:06.507Z,6.00
2024-02-28T00:14:39.004Z,5.23
2024-02-28T00:15:12.275Z,5.47
2024-02-28T00:15:45.079Z,5.80
2024-02-28T00:16:17.603Z,5.07
2024-02-28T00:16:50.211Z,5.03
2024-02-28T00:17:22.859Z,5.50
2024-02-28T00:17:56.189Z,5.40
2024-02-28T00:18:28.787Z,5.17
2024-02-28T00:19:01.394Z,5.87
2024-02-28T00:19:34.364Z,5.50
2024-02-28T00:20:07.889Z,5.57
2024-02-28T00:20:40.697Z,5.80
2024-02-28T00:21:13.193Z,6.27
2024-02-28T00:21:45.779Z,6.03
2024-02-28T00:22:18.309Z,6.17
2024-02-28T00:22:50.796Z,5.77
2024-02-28T00:23:23.335Z,5.67
2024-02-28T00:23:55.871Z,6.10
2024-02-28T00:24:28.383Z,6.67
2024-02-28T00:25:02.242Z,6.67
2024-02-28T00:25:34.733Z,6.53
2024-02-28T00:26:07.215Z,6.23
2024-02-28T00:26:44.031Z,6.00
2024-02-28T00:27:16.688Z,5.87
2024-02-28T00:27:49.292Z,5.90
2024-02-28T00:28:22.212Z,6.40
2024-02-28T00:28:54.915Z,6.10
2024-02-28T00:29:27.605Z,5.90
2024-02-28T00:30:00.219Z,6.03
2024-02-28T00:30:34.113Z,5.83
2024-02-28T00:31:06.708Z,6.30
2024-02-28T00:31:39.249Z,6.10
2024-02-28T00:32:11.769Z,5.67
2024-02-28T00:32:44.397Z,5.40
2024-02-28T00:33:17.032Z,5.70
2024-02-28T00:33:49.667Z,5.47
2024-02-28T00:34:22.193Z,5.33
2024-02-28T00:34:54.913Z,6.27
2024-02-28T00:35:27.413Z,5.80
2024-02-28T00:36:00.124Z,5.53
2024-02-28T00:36:43.719Z,5.77
2024-02-28T00:37:21.175Z,5.67
2024-02-28T00:37:53.762Z,6.10
2024-02-28T00:38:26.256Z,6.37
2024-02-28T00:38:58.777Z,6.97
2024-02-28T00:39:31.342Z,6.03
2024-02-28T00:40:05.344Z,6.17
2024-02-28T00:40:37.871Z,5.43
2024-02-28T00:41:10.426Z,5.70
2024-02-28T00:41:42.949Z,5.80
2024-02-28T00:42:15.493Z,6.03
2024-02-28T00:42:48.070Z,6.13
2024-02-28T00:43:20.599Z,5.97
2024-02-28T00:43:53.569Z,6.60
2024-02-28T00:44:26.044Z,6.67
2024-02-28T00:44:58.561Z,6.87
2024-02-28T00:45:31.053Z,6.23
2024-02-28T00:46:04.761Z,6.13
2024-02-28T00:46:37.534Z,5.47
2024-02-28T00:47:11.001Z,6.07
2024-02-28T00:47:43.535Z,6.67
2024-02-28T00:48:16.106Z,6.97
2024-02-28T00:48:48.658Z,6.17
2024-02-28T00:49:21.321Z,6.20
2024-02-28T00:49:53.817Z,5.97
2024-02-28T00:50:26.328Z,6.00
2024-02-28T00:50:58.877Z,6.37
2024-02-28T00:51:31.456Z,6.03
2024-02-28T00:52:04.140Z,6.50
2024-02-28T00:52:36.765Z,6.47
2024-02-28T00:53:09.384Z,7.03
2024-02-28T00:53:42.600Z,6.00
2024-02-28T00:54:15.117Z,5.20
2024-02-28T00:54:47.650Z,5.57
2024-02-28T00:55:20.245Z,5.87
2024-02-28T00:55:53.107Z,6.17
2024-02-28T00:56:26.417Z,6.40
2024-02-28T00:56:58.916Z,5.80
2024-02-28T00:57:31.854Z,5.87
2024-02-28T00:58:04.512Z,6.33
2024-02-28T00:58:37.010Z,5.60
2024-02-28T00:59:12.235Z,6.63
2024-02-28T00:59:45.670Z,6.20
2024-02-28T01:00:18.544Z,6.47
2024-02-28T01:00:51.093Z,6.43
2024-02-28T01:01:23.918Z,6.10
2024-02-28T01:01:56.496Z,6.33
2024-02-28T01:02:29.020Z,6.77
2024-02-28T01:03:04.797Z,5.97
2024-02-28T01:03:37.397Z,6.20
2024-02-28T01:04:09.931Z,6.03
2024-02-28T01:04:42.599Z,5.27
2024-02-28T01:05:15.119Z,5.73
2024-02-28T01:05:47.619Z,5.70
2024-02-28T01:06:20.136Z,5.90
2024-02-28T01:06:52.775Z,6.23
2024-02-28T01:07:25.336Z,5.87
2024-02-28T01:07:57.912Z,5.83
2024-02-28T01:08:30.467Z,5.77
2024-02-28T01:09:05.100Z,6.50
2024-02-28T01:09:37.814Z,5.97
2024-02-28T01:10:10.940Z,6.30
2024-02-28T01:10:43.539Z,6.73
2024-02-28T01:11:16.760Z,5.83
2024-02-28T01:11:49.263Z,6.53
2024-02-28T01:12:21.824Z,6.03
2024-02-28T01:12:54.414Z,5.63
2024-02-28T01:13:27.020Z,5.80
2024-02-28T01:13:59.534Z,5.73
2024-02-28T01:14:32.061Z,5.53
2024-02-28T01:15:05.073Z,5.33
2024-02-28T01:15:37.601Z,5.77
2024-02-28T01:16:10.155Z,5.60
2024-02-28T01:16:42.667Z,5.63
2024-02-28T01:17:15.245Z,5.43
2024-02-28T01:17:47.750Z,5.50
2024-02-28T01:18:20.386Z,6.23
2024-02-28T01:18:53.189Z,6.57
2024-02-28T01:19:25.750Z,5.63
2024-02-28T01:19:58.298Z,5.97
2024-02-28T01:20:30.797Z,5.63
2024-02-28T01:21:03.334Z,5.10
2024-02-28T01:21:35.849Z,5.70
2024-02-28T01:22:09.893Z,5.33
2024-02-28T01:22:42.426Z,5.77
2024-02-28T01:23:14.898Z,5.93
2024-02-28T01:23:47.408Z,5.57
2024-02-28T01:24:19.934Z,5.40
2024-02-28T01:24:52.544Z,4.90
2024-02-28T01:25:25.078Z,5.53
2024-02-28T01:25:57.619Z,5.13
2024-02-28T01:26:30.140Z,5.37
2024-02-28T01:27:02.679Z,5.37
2024-02-28T01:27:35.225Z,5.37
2024-02-28T01:28:07.733Z,5.10
2024-02-28T01:28:40.708Z,4.73
2024-02-28T01:29:13.532Z,5.33
2024-02-28T01:29:46.048Z,5.03
2024-02-28T01:30:18.627Z,4.67
2024-02-28T01:30:51.245Z,5.23
2024-02-28T01:31:23.849Z,5.07
2024-02-28T01:31:56.362Z,4.90
2024-02-28T01:32:30.657Z,4.83
2024-02-28T01:33:03.421Z,4.97
2024-02-28T01:33:36.016Z,5.03
2024-02-28T01:34:09.412Z,5.20
2024-02-28T01:34:41.921Z,4.97
2024-02-28T01:35:14.638Z,4.67
2024-02-28T01:35:47.161Z,5.13
2024-02-28T01:36:19.678Z,5.37
2024-02-28T01:36:52.850Z,5.30
2024-02-28T01:37:25.701Z,5.43
2024-02-28T01:37:58.227Z,4.73
2024-02-28T01:38:30.713Z,5.27
2024-02-28T01:39:04.207Z,5.10
2024-02-28T01:39:36.809Z,4.77
2024-02-28T01:40:09.787Z,5.27
2024-02-28T01:40:47.992Z,4.93
2024-02-28T01:41:20.532Z,5.30
2024-02-28T01:41:56.132Z,4.83
2024-02-28T01:42:28.691Z,4.53
2024-02-28T01:43:19.163Z,4.73
2024-02-28T01:43:51.741Z,4.83
2024-02-28T01:44:24.388Z,4.33
2024-02-28T01:44:56.977Z,4.97
2024-02-28T01:45:29.576Z,5.13
2024-02-28T01:46:06.749Z,5.53
2024-02-28T01:46:39.273Z,5.03
2024-02-28T01:47:12.296Z,4.43
2024-02-28T01:47:45.001Z,4.43
2024-02-28T01:48:17.799Z,5.03
2024-02-28T01:48:50.596Z,5.13
2024-02-28T01:49:24.157Z,4.63
2024-02-28T01:49:56.648Z,4.60
2024-02-28T01:50:29.294Z,5.07
2024-02-28T01:51:02.193Z,5.27
2024-02-28T01:51:34.870Z,5.23
2024-02-28T01:52:08.286Z,5.40
2024-02-28T01:52:42.210Z,5.70
2024-02-28T01:53:15.891Z,4.87
2024-02-28T01:53:52.181Z,5.10
2024-02-28T01:54:24.757Z,5.77
2024-02-28T01:54:57.902Z,5.40
2024-02-28T01:55:30.868Z,4.60
2024-02-28T01:56:03.753Z,4.63
2024-02-28T01:56:36.616Z,4.87
2024-02-28T01:57:09.507Z,4.77
2024-02-28T01:57:42.118Z,4.43
2024-02-28T01:58:14.627Z,4.47
2024-02-28T01:58:48.862Z,4.47
2024-02-28T01:59:25.550Z,4.47
2024-02-28T01:59:58.241Z,4.70
2024-02-28T02:00:31.432Z,4.83
2024-02-28T02:01:04.837Z,5.33
2024-02-28T02:01:38.221Z,5.93
2024-02-28T02:02:10.770Z,5.53
2024-02-28T02:02:44.156Z,4.80
2024-02-28T02:03:16.772Z,4.73
2024-02-28T02:03:49.830Z,5.60
2024-02-28T02:04:22.389Z,5.17
2024-02-28T02:04:55.397Z,5.40
2024-02-28T02:05:27.904Z,5.10
2024-02-28T02:06:00.397Z,5.17
2024-02-28T02:06:34.373Z,4.40
2024-02-28T02:07:08.227Z,4.27
2024-02-28T02:07:41.102Z,5.20
2024-02-28T02:08:13.660Z,5.40
2024-02-28T02:08:46.975Z,4.40
2024-02-28T02:09:19.606Z,5.47
2024-02-28T02:09:53.558Z,5.27
2024-02-28T02:10:27.656Z,5.23
2024-02-28T02:11:00.458Z,4.80
2024-02-28T02:11:33.692Z,4.60
2024-02-28T02:12:06.341Z,4.73
2024-02-28T02:12:39.122Z,4.70
2024-02-28T02:13:11.679Z,4.70
2024-02-28T02:13:54.377Z,5.27
2024-02-28T02:14:26.903Z,5.27
2024-02-28T02:14:59.394Z,4.80
2024-02-28T02:15:32.558Z,4.37
2024-02-28T02:16:05.241Z,4.47
2024-02-28T02:16:37.969Z,4.73
2024-02-28T02:17:10.501Z,4.50
2024-02-28T02:17:42.983Z,4.73
2024-02-28T02:18:15.648Z,4.97
2024-02-28T02:18:48.859Z,5.23
2024-02-28T02:19:22.140Z,5.53
2024-02-28T02:19:54.748Z,4.77
2024-02-28T02:20:30.715Z,4.90
2024-02-28T02:21:07.917Z,4.50
2024-02-28T02:21:52.028Z,4.73
2024-02-28T02:22:30.848Z,4.47
2024-02-28T02:23:03.524Z,4.67
2024-02-28T02:23:36.747Z,4.63
2024-02-28T02:24:09.275Z,6.23
2024-02-28T02:24:42.193Z,5.67
2024-02-28T02:25:14.715Z,5.50
2024-02-28T02:25:48.613Z,4.60
2024-02-28T02:26:21.144Z,4.43
2024-02-28T02:26:59.562Z,5.47
2024-02-28T02:27:32.193Z,5.47
2024-02-28T02:28:04.976Z,5.07
2024-02-28T02:28:37.624Z,5.70
2024-02-28T02:29:10.647Z,5.60
2024-02-28T02:29:43.165Z,5.23
2024-02-28T02:30:15.743Z,5.83
2024-02-28T02:30:48.714Z,5.23
2024-02-28T02:31:21.291Z,4.80
2024-02-28T02:31:53.767Z,5.53
2024-02-28T02:32:26.402Z,5.87
2024-02-28T02:32:58.993Z,5.87
2024-02-28T02:33:31.569Z,5.67
2024-02-28T02:34:04.173Z,6.37
2024-02-28T02:34:36.731Z,5.27
2024-02-28T02:35:09.482Z,5.53
2024-02-28T02:35:41.977Z,5.33
2024-02-28T02:36:14.488Z,5.40
2024-02-28T02:36:47.084Z,5.33
2024-02-28T02:37:19.592Z,5.03
2024-02-28T02:37:52.128Z,4.83
2024-02-28T02:38:24.660Z,5.33
2024-02-28T02:38:57.146Z,4.27
2024-02-28T02:39:29.797Z,4.40
2024-02-28T02:40:03.026Z,5.40
2024-02-28T02:40:35.538Z,4.40
2024-02-28T02:41:08.150Z,5.20
2024-02-28T02:41:41.757Z,4.80
2024-02-28T02:42:17.231Z,5.30
2024-02-28T02:42:49.856Z,5.20
2024-02-28T02:43:22.413Z,5.27
2024-02-28T02:43:54.894Z,5.27
2024-02-28T02:44:27.388Z,5.20
2024-02-28T02:44:59.893Z,5.33
2024-02-28T02:45:32.456Z,5.33
2024-02-28T02:46:05.240Z,5.23
2024-02-28T02:46:37.777Z,5.07
2024-02-28T02:47:10.735Z,5.57
2024-02-28T02:47:45.041Z,5.27
2024-02-28T02:48:17.653Z,4.93
2024-02-28T02:48:50.232Z,5.07
2024-02-28T02:49:22.776Z,4.87
2024-02-28T02:49:55.264Z,4.70
2024-02-28T02:50:27.876Z,5.07
2024-02-28T02:51:00.410Z,5.23
2024-02-28T02:51:32.980Z,4.87
2024-02-28T02:52:05.752Z,5.07
2024-02-28T02:52:38.234Z,5.03
2024-02-28T02:53:11.859Z,5.00
2024-02-28T02:53:44.344Z,4.50
2024-02-28T02:54:16.904Z,4.20
2024-02-28T02:54:49.475Z,4.40
2024-02-28T02:55:22.077Z,4.80
2024-02-28T02:55:55.214Z,5.07
2024-02-28T02:56:27.696Z,4.20
2024-02-28T02:57:00.175Z,4.50
2024-02-28T02:57:33.223Z,3.93
2024-02-28T02:58:05.728Z,4.40
2024-02-28T02:58:38.229Z,4.57
2024-02-28T02:59:13.489Z,4.60
2024-02-28T02:59:45.989Z,4.53
2024-02-28T03:00:18.684Z,4.57
2024-02-28T03:00:51.396Z,4.43
2024-02-28T03:01:24.043Z,4.30
2024-02-28T03:01:56.988Z,4.70
2024-02-28T03:02:29.494Z,4.93
2024-02-28T03:03:01.996Z,4.83
2024-02-28T03:03:34.499Z,4.77
2024-02-28T03:04:07.029Z,4.63
2024-02-28T03:04:39.544Z,5.33
2024-02-28T03:05:12.048Z,4.87
2024-02-28T03:05:44.582Z,4.57
2024-02-28T03:06:17.720Z,5.63
2024-02-28T03:06:50.354Z,5.03
2024-02-28T03:07:23.589Z,5.10
2024-02-28T03:07:56.101Z,4.90
2024-02-28T03:08:28.585Z,4.73
2024-02-28T03:09:01.410Z,4.77
2024-02-28T03:09:35.067Z,4.60
2024-02-28T03:10:08.044Z,4.20
2024-02-28T03:10:40.723Z,4.60
2024-02-28T03:11:13.320Z,4.50
2024-02-28T03:11:45.901Z,4.47
2024-02-28T03:12:18.695Z,4.73
2024-02-28T03:12:51.355Z,5.27
2024-02-28T03:13:24.061Z,4.60
2024-02-28T03:13:56.559Z,5.00
2024-02-28T03:14:29.141Z,5.40
2024-02-28T03:15:01.657Z,4.80
2024-02-28T03:15:35.112Z,4.53
2024-02-28T03:16:07.849Z,4.47
2024-02-28T03:16:43.901Z,4.90
2024-02-28T03:17:16.612Z,4.33
2024-02-28T03:17:49.174Z,4.83
2024-02-28T03:18:21.693Z,4.33
2024-02-28T03:18:55.137Z,4.43
2024-02-28T03:19:28.955Z,4.23
2024-02-28T03:20:01.482Z,4.87
2024-02-28T03:20:34.001Z,4.37
2024-02-28T03:21:06.815Z,4.03
2024-02-28T03:21:39.351Z,4.10
2024-02-28T03:22:11.877Z,4.50
2024-02-28T03:22:44.368Z,4.47
2024-02-28T03:23:16.877Z,4.67
2024-02-28T03:23:49.456Z,5.00
2024-02-28T03:24:22.007Z,4.73
2024-02-28T03:24:54.621Z,4.83
2024-02-28T03:25:27.110Z,4.33
2024-02-28T03:25:59.671Z,3.90
2024-02-28T03:26:32.188Z,4.47
2024-02-28T03:27:04.769Z,5.03
2024-02-28T03:27:37.273Z,5.50
2024-02-28T03:28:09.798Z,4.57
2024-02-28T03:28:42.283Z,5.33
2024-02-28T03:29:14.810Z,4.63
2024-02-28T03:29:47.628Z,4.33
2024-02-28T03:30:20.211Z,4.57
2024-02-28T03:30:52.766Z,4.50
2024-02-28T03:31:25.319Z,4.10
2024-02-28T03:31:59.408Z,3.90
2024-02-28T03:32:32.331Z,4.87
2024-02-28T03:33:05.134Z,4.83
2024-02-28T03:33:37.646Z,3.90
2024-02-28T03:34:11.137Z,4.47
2024-02-28T03:34:43.807Z,4.53
2024-02-28T03:35:16.360Z,4.23
2024-02-28T03:35:48.901Z,4.67
2024-02-28T03:36:21.465Z,5.10
2024-02-28T03:36:54.287Z,4.73
2024-02-28T03:37:27.363Z,4.83
2024-02-28T03:37:59.898Z,5.03
2024-02-28T03:38:32.689Z,4.90
2024-02-28T03:39:05.214Z,5.40
2024-02-28T03:39:37.786Z,4.93
2024-02-28T03:40:10.487Z,4.43
2024-02-28T03:40:42.977Z,4.73
2024-02-28T03:41:15.463Z,4.67
2024-02-28T03:41:47.948Z,5.50
2024-02-28T03:42:20.704Z,4.87
2024-02-28T03:42:53.284Z,4.63
2024-02-28T03:43:26.122Z,4.87
2024-02-28T03:43:58.649Z,4.93
2024-02-28T03:44:31.253Z,5.20
2024-02-28T03:45:04.024Z,4.57
2024-02-28T03:45:42.257Z,4.80
2024-02-28T03:46:14.807Z,4.47
2024-02-28T03:46:47.297Z,4.20
2024-02-28T03:47:19.838Z,4.50
2024-02-28T03:47:52.361Z,5.13
2024-02-28T03:48:24.896Z,5.00
2024-02-28T03:48:57.632Z,4.67
2024-02-28T03:49:30.176Z,4.27
2024-02-28T03:50:04.924Z,3.90
2024-02-28T03:50:37.455Z,4.63
2024-02-28T03:51:09.968Z,4.70
2024-02-28T03:51:42.912Z,4.87
2024-02-28T03:52:15.440Z,5.23
2024-02-28T03:52:47.967Z,5.00
2024-02-28T03:53:20.518Z,4.90
2024-02-28T03:53:53.069Z,4.93
2024-02-28T03:54:25.608Z,5.40
2024-02-28T03:54:59.072Z,4.73
2024-02-28T03:55:31.667Z,4.63
2024-02-28T03:56:04.753Z,4.70
2024-02-28T03:56:37.272Z,5.10
2024-02-28T03:57:09.803Z,4.90
2024-02-28T03:57:42.327Z,4.27
2024-02-28T03:58:14.821Z,4.40
2024-02-28T03:58:47.383Z,4.60
2024-02-28T03:59:20.069Z,4.07
2024-02-28T03:59:52.547Z,3.97
2024-02-28T04:00:26.962Z,4.60
2024-02-28T04:00:59.615Z,4.67
2024-02-28T04:01:32.440Z,4.13
2024-02-28T04:02:05.074Z,3.60
2024-02-28T04:02:37.639Z,3.97
2024-02-28T04:03:10.137Z,3.97
2024-02-28T04:03:42.865Z,4.50
2024-02-28T04:04:15.419Z,4.57
2024-02-28T04:04:47.911Z,4.03
2024-02-28T04:05:20.479Z,3.80
2024-02-28T04:05:52.982Z,3.93
2024-02-28T04:06:25.870Z,4.87
2024-02-28T04:06:58.462Z,4.70
2024-02-28T04:07:31.005Z,4.83
2024-02-28T04:08:03.741Z,4.07
2024-02-28T04:08:36.279Z,4.37
2024-02-28T04:09:08.879Z,5.43
2024-02-28T04:09:41.452Z,5.73
2024-02-28T04:10:14.028Z,5.47
2024-02-28T04:10:46.627Z,5.53
2024-02-28T04:11:19.648Z,5.67
2024-02-28T04:11:52.558Z,5.20
2024-02-28T04:12:25.087Z,4.63
2024-02-28T04:12:57.685Z,4.93
2024-02-28T04:13:30.305Z,5.07
2024-02-28T04:14:02.856Z,5.00
2024-02-28T04:14:38.322Z,4.77
2024-02-28T04:15:15.590Z,4.83
2024-02-28T04:15:48.841Z,4.77
2024-02-28T04:16:21.382Z,4.57
2024-02-28T04:16:54.342Z,4.60
2024-02-28T04:17:26.898Z,4.43
2024-02-28T04:17:59.492Z,5.00
2024-02-28T04:18:32.174Z,5.13
2024-02-28T04:19:04.692Z,4.93
2024-02-28T04:19:38.707Z,4.60
2024-02-28T04:20:12.929Z,4.63
2024-02-28T04:20:45.418Z,4.67
2024-02-28T04:21:17.899Z,4.57
2024-02-28T04:21:50.496Z,4.60
2024-02-28T04:22:23.034Z,4.93
2024-02-28T04:22:55.588Z,5.00
2024-02-28T04:23:28.090Z,5.10
2024-02-28T04:24:00.588Z,5.60
2024-02-28T04:24:34.124Z,5.77
2024-02-28T04:25:09.587Z,6.30
2024-02-28T04:25:42.141Z,7.20
2024-02-28T04:26:14.676Z,7.20
2024-02-28T04:26:47.172Z,6.63
2024-02-28T04:27:19.697Z,5.80
2024-02-28T04:27:52.311Z,5.67
2024-02-28T04:28:24.940Z,4.70
2024-02-28T04:28:57.476Z,4.70
2024-02-28T04:29:30.210Z,4.63
2024-02-28T04:30:02.753Z,5.03
2024-02-28T04:30:35.403Z,4.67
2024-02-28T04:31:08.231Z,5.27
2024-02-28T04:31:41.444Z,5.17
2024-02-28T04:32:13.933Z,4.77
2024-02-28T04:32:46.485Z,4.57
2024-02-28T04:33:19.073Z,4.67
2024-02-28T04:33:51.635Z,4.13
2024-02-28T04:34:24.234Z,3.80
2024-02-28T04:34:56.930Z,3.83
2024-02-28T04:35:29.420Z,4.40
2024-02-28T04:36:01.922Z,3.83
2024-02-28T04:36:34.429Z,3.73
2024-02-28T04:37:07.073Z,4.43
2024-02-28T04:37:39.609Z,4.63
2024-02-28T04:38:12.110Z,4.70
2024-02-28T04:38:44.625Z,4.13
2024-02-28T04:39:17.161Z,4.07
2024-02-28T04:39:49.715Z,4.00
2024-02-28T04:40:22.225Z,3.80
2024-02-28T04:40:54.728Z,3.67
2024-02-28T04:41:27.307Z,4.70
2024-02-28T04:41:59.815Z,3.97
2024-02-28T04:42:32.367Z,4.17
2024-02-28T04:43:05.078Z,4.40
2024-02-28T04:43:37.558Z,4.67
2024-02-28T04:44:10.070Z,4.77
2024-02-28T04:44:42.585Z,4.93
2024-02-28T04:45:15.156Z,4.33
2024-02-28T04:45:47.777Z,4.47
2024-02-28T04:46:20.275Z,4.60
2024-02-28T04:46:52.775Z,4.53
2024-02-28T04:47:30.081Z,4.10
2024-02-28T04:48:08.945Z,4.33
2024-02-28T04:48:41.547Z,3.90
2024-02-28T04:49:14.217Z,4.73
2024-02-28T04:49:46.749Z,4.40
2024-02-28T04:50:19.260Z,4.70
2024-02-28T04:50:52.865Z,5.77
2024-02-28T04:51:25.423Z,5.57
2024-02-28T04:51:58.083Z,5.23
2024-02-28T04:52:30.615Z,4.87
2024-02-28T04:53:03.366Z,4.70
2024-02-28T04:53:35.923Z,4.30
2024-02-28T04:54:08.460Z,4.07
2024-02-28T04:54:42.013Z,4.77
2024-02-28T04:55:14.531Z,5.50
2024-02-28T04:55:47.021Z,5.53
2024-02-28T04:56:19.494Z,5.57
2024-02-28T04:56:52.380Z,5.23
2024-02-28T04:57:24.900Z,5.17
2024-02-28T04:57:57.561Z,4.97
2024-02-28T04:58:30.154Z,5.27
2024-02-28T04:59:02.685Z,4.83
2024-02-28T04:59:35.186Z,5.00
2024-02-28T05:00:09.225Z,4.63
2024-02-28T05:00:41.804Z,4.93
2024-02-28T05:01:14.439Z,5.70
2024-02-28T05:01:47.295Z,6.10
2024-02-28T05:02:20.062Z,6.53
2024-02-28T05:02:52.561Z,6.43
2024-02-28T05:03:26.223Z,6.07
2024-02-28T05:03:58.813Z,5.40
2024-02-28T05:04:31.348Z,5.67
2024-02-28T05:05:04.084Z,6.00
2024-02-28T05:05:36.610Z,6.47
2024-02-28T05:06:09.166Z,6.00
2024-02-28T05:06:41.727Z,5.47
2024-02-28T05:07:14.238Z,4.80
2024-02-28T05:07:46.727Z,4.60
2024-02-28T05:08:21.355Z,4.77
2024-02-28T05:08:53.952Z,5.00
2024-02-28T05:09:26.596Z,5.70
2024-02-28T05:09:59.175Z,5.10
2024-02-28T05:10:31.738Z,5.77
2024-02-28T05:11:04.357Z,5.57
2024-02-28T05:11:36.967Z,5.33
2024-02-28T05:12:09.599Z,5.80
2024-02-28T05:12:42.139Z,5.93
2024-02-28T05:13:14.695Z,6.37
2024-02-28T05:13:49.881Z,6.50
2024-02-28T05:14:22.366Z,5.50
2024-02-28T05:14:55.674Z,5.07
2024-02-28T05:15:28.396Z,5.13
2024-02-28T05:16:01.533Z,5.30
2024-02-28T05:16:34.087Z,5.53
2024-02-28T05:17:06.570Z,5.53
2024-02-28T05:17:39.087Z,5.50
2024-02-28T05:18:11.746Z,5.03
2024-02-28T05:18:47.475Z,5.27
2024-02-28T05:19:20.061Z,4.83
2024-02-28T05:19:52.588Z,4.73
2024-02-28T05:20:25.431Z,4.47
2024-02-28T05:20:58.039Z,4.47
2024-02-28T05:21:30.561Z,5.27
2024-02-28T05:22:04.114Z,5.00
2024-02-28T05:22:36.646Z,4.63
2024-02-28T05:23:09.150Z,4.73
2024-02-28T05:23:41.846Z,5.17
2024-02-28T05:24:14.463Z,5.17
2024-02-28T05:24:47.885Z,4.73
2024-02-28T05:25:20.418Z,5.00
2024-02-28T05:25:52.935Z,4.40
2024-02-28T05:26:26.531Z,4.67
2024-02-28T05:26:59.036Z,4.13
2024-02-28T05:27:31.596Z,5.07
2024-02-28T05:28:04.247Z,5.63
2024-02-28T05:28:37.062Z,6.23
2024-02-28T05:29:09.557Z,5.23
2024-02-28T05:29:43.397Z,4.93
2024-02-28T05:30:15.963Z,5.50
2024-02-28T05:30:50.946Z,4.80
2024-02-28T05:31:25.578Z,5.30
2024-02-28T05:31:58.497Z,5.27
2024-02-28T05:33:18.585Z,5.10
2024-02-28T05:33:53.260Z,5.40
2024-02-28T05:34:25.847Z,4.73
2024-02-28T05:34:58.329Z,4.53
2024-02-28T05:35:30.859Z,5.03
2024-02-28T05:36:05.743Z,5.33
2024-02-28T05:36:38.264Z,5.03
2024-02-28T05:37:10.800Z,5.13
2024-02-28T05:37:43.415Z,4.90
2024-02-28T05:38:16.076Z,5.00
2024-02-28T05:38:49.193Z,5.27
2024-02-28T05:39:21.734Z,4.30
2024-02-28T05:39:54.305Z,5.10
2024-02-28T05:40:26.847Z,5.13
2024-02-28T05:40:59.333Z,4.60
2024-02-28T05:41:31.814Z,4.10
2024-02-28T05:42:04.785Z,4.83
2024-02-28T05:42:37.351Z,4.00
2024-02-28T05:43:09.859Z,4.63
2024-02-28T05:43:42.352Z,4.93
2024-02-28T05:44:14.825Z,4.77
2024-02-28T05:44:47.311Z,4.43
2024-02-28T05:45:19.824Z,4.40
2024-02-28T05:45:52.364Z,4.20
2024-02-28T05:46:24.946Z,4.27
2024-02-28T05:46:57.455Z,4.73
2024-02-28T05:47:31.001Z,4.07
2024-02-28T05:48:03.676Z,4.97
2024-02-28T05:48:36.212Z,4.53
2024-02-28T05:49:08.958Z,4.70
2024-02-28T05:49:41.492Z,5.23
2024-02-28T05:50:15.531Z,5.00
2024-02-28T05:50:48.087Z,5.03
2024-02-28T05:51:20.767Z,4.97
2024-02-28T05:51:55.085Z,4.73
2024-02-28T05:52:28.271Z,4.53
2024-02-28T05:53:00.748Z,5.17
2024-02-28T05:53:36.768Z,4.33
2024-02-28T05:54:09.288Z,4.20
2024-02-28T05:54:42.026Z,4.13
2024-02-28T05:55:14.657Z,4.77
2024-02-28T05:55:47.179Z,5.33
2024-02-28T05:56:20.955Z,4.93
2024-02-28T05:56:53.924Z,4.53
2024-02-28T05:57:26.456Z,3.93
2024-02-28T05:57:59.247Z,3.97
2024-02-28T05:58:31.975Z,4.10
2024-02-28T05:59:04.490Z,4.00
2024-02-28T05:59:36.988Z,3.93
2024-02-28T06:00:11.071Z,4.47
2024-02-28T06:00:43.832Z,4.30
2024-02-28T06:01:21.146Z,4.43
2024-02-28T06:01:53.873Z,5.07
2024-02-28T06:02:26.424Z,5.20
2024-02-28T06:02:58.961Z,5.13
2024-02-28T06:03:31.483Z,5.57
2024-02-28T06:04:04.595Z,5.17
2024-02-28T06:04:37.162Z,6.17
2024-02-28T06:05:09.907Z,5.77
2024-02-28T06:05:43.902Z,5.50
2024-02-28T06:06:16.842Z,5.60
2024-02-28T06:06:50.723Z,5.90
2024-02-28T06:07:23.493Z,5.93
2024-02-28T06:07:55.968Z,8.33
2024-02-28T06:08:28.447Z,7.63
2024-02-28T06:09:00.956Z,6.03
2024-02-28T06:09:33.456Z,6.13
2024-02-28T06:10:09.121Z,5.93
2024-02-28T06:10:43.575Z,6.13
2024-02-28T06:11:16.526Z,6.17
2024-02-28T06:11:49.120Z,6.20
2024-02-28T06:12:21.672Z,6.63
2024-02-28T06:12:56.887Z,5.67
2024-02-28T06:13:30.335Z,5.83
2024-02-28T06:14:05.040Z,6.30
2024-02-28T06:14:37.551Z,5.50
2024-02-28T06:15:10.163Z,5.33
2024-02-28T06:15:43.885Z,5.53
2024-02-28T06:16:17.411Z,6.20
2024-02-28T06:16:49.939Z,5.97
2024-02-28T06:17:23.291Z,5.07
2024-02-28T06:18:01.198Z,5.37
2024-02-28T06:18:34.973Z,5.50
2024-02-28T06:19:07.784Z,4.90
2024-02-28T06:19:40.361Z,5.33
2024-02-28T06:20:12.914Z,4.67
2024-02-28T06:20:45.473Z,4.63
2024-02-28T06:21:17.998Z,4.97
2024-02-28T06:21:51.114Z,5.00
2024-02-28T06:22:23.641Z,4.53
2024-02-28T06:22:56.439Z,5.20
2024-02-28T06:23:30.195Z,5.20
2024-02-28T06:24:03.049Z,5.60
2024-02-28T06:24:35.920Z,5.23
2024-02-28T06:25:14.998Z,4.37
2024-02-28T06:25:47.573Z,4.63
2024-02-28T06:26:20.130Z,5.77
2024-02-28T06:26:52.881Z,5.77
2024-02-28T06:27:25.389Z,5.70
2024-02-28T06:27:57.939Z,5.93
2024-02-28T06:28:30.511Z,5.47
2024-02-28T06:29:05.494Z,5.43
2024-02-28T06:29:38.004Z,5.53
2024-02-28T06:30:10.682Z,5.20
2024-02-28T06:30:50.448Z,5.53
2024-02-28T06:31:23.024Z,5.17
2024-02-28T06:31:56.721Z,5.53
2024-02-28T06:32:29.247Z,5.73
2024-02-28T06:33:01.851Z,5.83
2024-02-28T06:33:34.392Z,5.17
2024-02-28T06:34:07.186Z,5.40
2024-02-28T06:34:39.746Z,5.37
2024-02-28T06:35:12.327Z,5.07
2024-02-28T06:35:44.845Z,5.30
2024-02-28T06:36:17.408Z,5.07
2024-02-28T06:36:49.983Z,4.97
2024-02-28T06:37:22.509Z,5.13
2024-02-28T06:37:55.442Z,4.87
2024-02-28T06:38:27.944Z,4.37
2024-02-28T06:39:00.430Z,4.63
2024-02-28T06:39:33.053Z,5.07
2024-02-28T06:40:06.189Z,4.83
2024-02-28T06:40:39.193Z,4.70
2024-02-28T06:41:11.719Z,4.83
2024-02-28T06:41:44.259Z,4.33
2024-02-28T06:42:16.809Z,4.07
2024-02-28T06:42:49.609Z,4.90
2024-02-28T06:43:22.212Z,5.53
2024-02-28T06:43:54.703Z,4.70
2024-02-28T06:44:27.248Z,4.90
2024-02-28T06:45:02.546Z,5.27
2024-02-28T06:45:35.091Z,4.33
2024-02-28T06:46:07.798Z,4.57
2024-02-28T06:46:40.359Z,4.07
2024-02-28T06:47:12.950Z,4.20
2024-02-28T06:47:46.429Z,4.33
2024-02-28T06:48:19.075Z,4.63
2024-02-28T06:48:51.739Z,4.90
2024-02-28T06:49:24.252Z,5.10
2024-02-28T06:49:56.780Z,4.80
2024-02-28T06:50:29.442Z,5.30
2024-02-28T06:51:02.439Z,5.90
2024-02-28T06:51:34.966Z,5.10
2024-02-28T06:52:07.549Z,5.10
2024-02-28T06:52:40.236Z,5.87
2024-02-28T06:53:12.810Z,6.87
2024-02-28T06:53:45.481Z,6.27
2024-02-28T06:54:18.051Z,5.40
2024-02-28T06:54:50.847Z,5.43
2024-02-28T06:55:23.398Z,4.60
2024-02-28T06:55:55.969Z,4.97
2024-02-28T06:56:28.654Z,5.27
2024-02-28T06:57:01.143Z,5.10
2024-02-28T06:57:33.704Z,5.07
2024-02-28T06:58:06.437Z,5.53
2024-02-28T06:58:41.385Z,5.80
2024-02-28T06:59:13.891Z,5.00
2024-02-28T06:59:46.869Z,5.03
2024-02-28T07:00:21.857Z,5.13
2024-02-28T07:00:59.141Z,5.17
2024-02-28T07:01:33.370Z,5.53
2024-02-28T07:02:06.385Z,5.73
2024-02-28T07:02:39.109Z,4.87
2024-02-28T07:03:11.625Z,5.20
2024-02-28T07:03:44.247Z,5.13
2024-02-28T07:04:16.828Z,5.30
2024-02-28T07:04:50.369Z,4.77
2024-02-28T07:05:25.712Z,5.37
2024-02-28T07:05:58.757Z,5.17
2024-02-28T07:06:31.409Z,5.90
2024-02-28T07:07:04.848Z,5.47
2024-02-28T07:07:37.382Z,5.80
2024-02-28T07:08:12.064Z,5.80
2024-02-28T07:08:44.572Z,6.33
2024-02-28T07:09:19.149Z,5.60
2024-02-28T07:09:54.590Z,4.97
2024-02-28T07:10:29.948Z,6.13
2024-02-28T07:11:02.608Z,5.43
2024-02-28T07:11:39.774Z,5.53
2024-02-28T07:12:12.377Z,6.37
2024-02-28T07:12:44.956Z,6.17
2024-02-28T07:13:17.497Z,5.47
2024-02-28T07:13:50.029Z,5.53
2024-02-28T07:14:22.514Z,5.90
2024-02-28T07:14:56.462Z,5.77
2024-02-28T07:15:29.057Z,5.57
2024-02-28T07:16:01.686Z,6.13
2024-02-28T07:16:34.929Z,6.00
2024-02-28T07:17:08.211Z,6.10
2024-02-28T07:17:40.799Z,6.10
2024-02-28T07:18:13.417Z,6.20
2024-02-28T07:18:46.063Z,5.97
2024-02-28T07:19:19.635Z,6.03
2024-02-28T07:19:52.153Z,5.50
2024-02-28T07:20:25.774Z,5.10
2024-02-28T07:20:58.354Z,4.70